Time;durP1;ratioP1;P1;durP2;ratioP2;P2;SDS_P1;SDS_P2;PMS_P1;PMS_P2;Temp;Humidity;BMP_temperature;BMP_pressure;BME280_temperature;BME280_humidity;BME280_pressure;Samples;Min_cycle;Max_cycle;Signal;HPM_P1;HPM_P2
2022/11/17 00:00:46;;;;;;;;;9.25;6.75;;;;;14.62;72.71;98083.28;2012228;29;46614;-61
2022/11/17 00:01:47;;;;;;;;;9.50;7.50;;;;;14.62;72.46;98085.13;2012108;29;46771;-59
2022/11/17 00:02:51;;;;;;;;;7.00;6.00;;;;;14.61;72.21;98081.59;2020940;29;46611;-59
2022/11/17 00:04:30;;;;;;;;;11.25;9.00;;;;;14.62;71.93;98063.75;2027266;29;45993;-60
2022/11/17 00:05:40;;;;;;;;;6.75;5.75;;;;;14.63;72.36;98068.13;1999581;29;46647;-63
2022/11/17 00:06:41;;;;;;;;;6.00;5.50;;;;;14.61;71.93;98076.25;1989404;29;46759;-60
2022/11/17 00:07:45;;;;;;;;;6.67;6.00;;;;;14.62;72.04;98077.09;1991144;29;46442;-59
2022/11/17 00:08:57;;;;;;;;;6.00;5.00;;;;;14.61;71.84;98059.38;1989232;29;50004;-60
2022/11/17 00:10:09;;;;;;;;;8.25;5.50;;;;;14.59;71.27;98070.16;1979820;29;46387;-60
2022/11/17 00:11:24;;;;;;;;;5.25;1.25;;;;;14.61;71.99;98062.91;1978780;29;46477;-60
2022/11/17 00:14:32;;;;;;;;;3.75;3.75;;;;;14.61;71.43;98062.91;1957108;29;47295;-62
2022/11/17 00:15:33;;;;;;;;;10.50;4.50;;;;;14.62;71.51;98056.59;1970231;29;46715;-61
2022/11/17 00:16:37;;;;;;;;;7.50;6.50;;;;;14.62;71.58;98055.75;1962996;29;46312;-61
2022/11/17 00:22:02;;;;;;;;;7.50;5.75;;;;;14.61;70.74;98078.03;1981085;29;46520;-60
2022/11/17 00:23:05;;;;;;;;;7.50;3.75;;;;;14.60;70.80;98057.66;1988108;29;46767;-60
2022/11/17 00:24:35;;;;;;;;;9.75;6.00;;;;;14.61;71.05;98064.69;1991428;29;47310;-59
2022/11/17 00:25:53;;;;;;;;;4.00;4.00;;;;;14.59;70.81;98075.50;2006502;29;46450;-60
2022/11/17 00:27:13;;;;;;;;;6.00;6.00;;;;;14.59;71.00;98059.50;2017588;29;47110;-60
2022/11/17 00:28:17;;;;;;;;;7.50;5.25;;;;;14.59;70.83;98078.16;1980318;29;46744;-61
2022/11/17 00:34:09;;;;;;;;;3.25;3.00;;;;;14.60;70.72;98081.69;2022181;28;46776;-60
2022/11/17 00:35:31;;;;;;;;;6.50;5.75;;;;;14.60;70.82;98089.69;2007089;29;46998;-58
2022/11/17 00:36:40;;;;;;;;;6.50;5.75;;;;;14.59;70.65;98064.81;2016685;29;46208;-60
2022/11/17 00:39:13;;;;;;;;;8.50;5.00;;;;;14.58;70.88;98095.16;2025924;28;46274;-61
2022/11/17 00:40:29;;;;;;;;;1.75;1.75;;;;;14.58;70.76;98067.63;2009234;29;46644;-61
2022/11/17 00:41:30;;;;;;;;;4.00;3.25;;;;;14.57;70.67;98076.59;2017382;29;46391;-60
2022/11/17 00:42:45;;;;;;;;;7.50;5.50;;;;;14.58;70.93;98086.31;2011797;29;46689;-60
2022/11/17 00:43:48;;;;;;;;;6.00;6.00;;;;;14.56;70.85;98086.44;1989300;29;46151;-59
2022/11/17 00:44:49;;;;;;;;;5.25;4.75;;;;;14.57;70.27;98079.28;1997146;29;46264;-59
2022/11/17 00:46:05;;;;;;;;;5.25;5.00;;;;;14.55;70.54;98082.06;2012345;29;46315;-60
2022/11/17 00:47:34;;;;;;;;;7.25;4.25;;;;;14.56;70.29;98077.56;2015373;29;46635;-60
2022/11/17 00:48:38;;;;;;;;;5.50;3.00;;;;;14.55;70.08;98075.88;2019916;29;46563;-59
2022/11/17 00:49:44;;;;;;;;;9.25;6.50;;;;;14.56;70.40;98085.59;2021127;29;46534;-61
2022/11/17 00:51:19;;;;;;;;;5.75;4.50;;;;;14.56;70.35;98085.59;2013757;29;46719;-61
2022/11/17 00:52:25;;;;;;;;;7.25;4.50;;;;;14.56;70.53;98075.75;2004862;29;46464;-61
2022/11/17 00:53:52;;;;;;;;;8.50;6.50;;;;;14.57;70.43;98100.63;1992379;29;46678;-60
2022/11/17 00:55:11;;;;;;;;;5.50;5.50;;;;;14.55;70.25;98102.56;1991913;29;47517;-61
2022/11/17 00:56:33;;;;;;;;;6.75;4.00;;;;;14.56;70.27;98077.56;2001092;29;45616;-59
2022/11/17 00:57:39;;;;;;;;;6.00;4.75;;;;;14.55;70.06;98081.22;2000616;29;47270;-59
2022/11/17 00:58:46;;;;;;;;;4.00;4.00;;;;;14.55;69.76;98073.22;2004292;29;46395;-62
2022/11/17 00:59:49;;;;;;;;;5.50;4.25;;;;;14.54;70.42;98080.38;2002683;29;46297;-61
2022/11/17 01:00:50;;;;;;;;;5.00;3.00;;;;;14.55;70.05;98081.22;2007943;29;46465;-61
2022/11/17 01:02:03;;;;;;;;;4.00;3.67;;;;;14.55;69.85;98057.19;2014711;29;45739;-60
2022/11/17 01:03:12;;;;;;;;;3.00;3.00;;;;;14.55;69.46;98087.41;2003950;29;46497;-59
2022/11/17 01:04:36;;;;;;;;;5.00;4.50;;;;;14.55;69.29;98073.22;2008706;29;46992;-61
2022/11/17 01:05:55;;;;;;;;;6.50;3.00;;;;;14.54;69.53;98082.19;2015274;29;46686;-58
2022/11/17 01:07:07;;;;;;;;;4.50;2.50;;;;;14.55;69.43;98083.88;2007020;29;46827;-60
2022/11/17 01:08:11;;;;;;;;;2.00;2.00;;;;;14.54;68.43;98076.84;2016252;29;46701;-58
2022/11/17 01:09:31;;;;;;;;;5.50;3.50;;;;;14.54;68.11;98082.19;2021414;29;47228;-60
2022/11/17 01:10:35;;;;;;;;;3.00;3.00;;;;;14.54;69.07;98067.03;2011519;29;47459;-62
2022/11/17 01:11:54;;;;;;;;;2.50;2.50;;;;;14.54;69.04;98080.38;2023375;29;46714;-61
2022/11/17 01:13:01;;;;;;;;;6.75;4.75;;;;;14.55;68.62;98083.88;2022709;29;46486;-60
2022/11/17 01:14:02;;;;;;;;;6.75;5.00;;;;;14.56;69.06;98093.59;2021648;29;47191;-59
2022/11/17 01:15:14;;;;;;;;;3.75;2.75;;;;;14.56;68.88;98083.75;2031885;28;47093;-60
2022/11/17 01:16:20;;;;;;;;;4.50;3.25;;;;;14.57;68.89;98103.28;2029763;28;46062;-61
2022/11/17 01:17:26;;;;;;;;;4.75;2.75;;;;;14.57;69.16;98098.81;2022091;29;46650;-60
2022/11/17 01:18:43;;;;;;;;;2.75;1.75;;;;;14.58;69.17;98088.97;2021988;29;47047;-62
2022/11/17 01:19:57;;;;;;;;;4.00;4.00;;;;;14.58;68.48;98088.97;2022676;29;45075;-59
2022/11/17 01:21:17;;;;;;;;;4.25;3.00;;;;;14.57;68.31;98095.28;2035548;28;46600;-61
2022/11/17 01:22:18;;;;;;;;;3.00;2.75;;;;;14.58;68.40;98089.81;2035325;28;46052;-58
2022/11/17 01:23:18;;;;;;;;;3.67;3.67;;;;;14.58;68.61;98089.81;2047286;28;46753;-60
2022/11/17 01:24:22;;;;;;;;;2.67;1.67;;;;;14.59;68.21;98106.69;2053120;28;46124;-58
2022/11/17 01:25:39;;;;;;;;;2.75;2.00;;;;;14.60;67.95;98100.38;2038326;28;45693;-60
2022/11/17 01:26:45;;;;;;;;;2.25;2.25;;;;;14.59;68.51;98106.69;2063080;28;46734;-59
2022/11/17 01:27:49;;;;;;;;;4.00;2.50;;;;;14.59;67.95;98096.00;2070442;28;46167;-59
2022/11/17 01:29:09;;;;;;;;;3.75;3.25;;;;;14.58;67.03;98100.50;2070124;28;46489;-60
2022/11/17 01:30:17;;;;;;;;;3.00;3.00;;;;;14.59;67.80;98104.88;2065947;28;46648;-60
2022/11/17 01:31:23;;;;;;;;;2.75;2.25;;;;;14.58;67.40;98123.66;2071157;28;47006;-61
2022/11/17 01:32:48;;;;;;;;;4.25;3.25;;;;;14.58;67.28;98108.50;2080411;28;46314;-61
2022/11/17 01:33:58;;;;;;;;;3.00;2.25;;;;;14.57;66.94;98109.47;2085638;28;46980;-59
2022/11/17 01:35:22;;;;;;;;;1.25;1.00;;;;;14.56;66.94;98130.97;2096423;28;46411;-62
2022/11/17 01:38:37;;;;;;;;;2.75;1.75;;;;;14.56;67.17;98131.81;2061720;28;46566;-60
2022/11/17 01:39:41;;;;;;;;;2.00;2.00;;;;;14.56;66.92;98120.28;2059327;28;46265;-59
2022/11/17 01:41:06;;;;;;;;;2.25;2.25;;;;;14.55;67.15;98130.09;2061792;28;46786;-60
2022/11/17 01:42:19;;;;;;;;;2.25;1.50;;;;;14.56;67.33;98130.97;2061800;28;46638;-61
2022/11/17 01:43:47;;;;;;;;;2.25;2.00;;;;;14.55;67.27;98140.78;2062755;28;46483;-60
2022/11/17 01:44:58;;;;;;;;;0.25;0.25;;;;;14.56;66.83;98130.97;2062196;28;46224;-60
2022/11/17 01:46:46;;;;;;;;;1.50;1.00;;;;;14.57;66.85;98141.50;2063803;28;46761;-59
2022/11/17 01:48:21;;;;;;;;;2.75;2.75;;;;;14.57;66.94;98140.66;2016922;29;46038;-58
2022/11/17 01:50:10;;;;;;;;;2.25;1.25;;;;;14.58;66.74;98145.88;2024636;29;46657;-60
2022/11/17 01:51:13;;;;;;;;;4.50;1.50;;;;;14.58;66.78;98156.53;2031165;28;46675;-60
2022/11/17 01:52:15;;;;;;;;;3.50;1.50;;;;;14.59;66.76;98160.06;2029769;28;46018;-62
2022/11/17 01:53:25;;;;;;;;;2.25;1.50;;;;;14.59;66.11;98160.06;2031066;29;46595;-60
2022/11/17 01:54:33;;;;;;;;;1.50;1.50;;;;;14.58;66.10;98150.38;2029246;28;46916;-59
2022/11/17 01:55:49;;;;;;;;;1.50;1.50;;;;;14.57;66.62;98154.84;2030317;29;46437;-59
2022/11/17 01:57:03;;;;;;;;;1.50;1.50;;;;;14.56;66.38;98155.81;2030266;29;46683;-60
2022/11/17 01:58:30;;;;;;;;;2.00;1.25;;;;;14.55;65.90;98148.78;2029894;28;47221;-61
2022/11/17 02:00:08;;;;;;;;;2.00;2.00;;;;;14.54;65.52;98163.09;2030845;29;46954;-61
2022/11/17 02:01:09;;;;;;;;;2.00;1.25;;;;;14.54;65.56;98159.59;2029670;29;46724;-60
2022/11/17 02:02:22;;;;;;;;;2.00;1.75;;;;;14.52;66.16;98159.72;2021076;29;46344;-60
2022/11/17 02:03:32;;;;;;;;;0.00;0.00;;;;;14.52;66.23;98161.53;2019440;29;46815;-59
2022/11/17 02:04:53;;;;;;;;;1.75;1.00;;;;;14.52;66.16;98148.19;2028519;28;47135;-60
2022/11/17 02:07:49;;;;;;;;;2.50;0.25;;;;;14.51;65.81;98167.84;2037720;28;46834;-59
2022/11/17 02:09:12;;;;;;;;;2.00;1.00;;;;;14.51;66.33;98183.84;2038435;28;47002;-59
2022/11/17 02:10:16;;;;;;;;;1.00;1.00;;;;;14.51;65.70;98173.19;2036736;28;46739;-59
2022/11/17 02:11:34;;;;;;;;;1.00;0.75;;;;;14.49;66.48;98186.66;2038511;28;44967;-61
2022/11/17 02:12:38;;;;;;;;;4.00;1.25;;;;;14.50;65.80;98168.81;2037009;28;45624;-58
2022/11/17 02:13:45;;;;;;;;;1.00;0.75;;;;;14.51;66.38;98159.84;1998640;29;46379;-61
2022/11/17 02:14:52;;;;;;;;;1.00;0.75;;;;;14.51;65.99;98181.19;2013413;28;46097;-61
2022/11/17 02:16:06;;;;;;;;;0.50;0.50;;;;;14.51;65.41;98182.03;2050034;28;46757;-60
2022/11/17 02:17:37;;;;;;;;;3.00;1.00;;;;;14.50;66.08;98171.47;2052201;28;46626;-60
2022/11/17 02:18:39;;;;;;;;;0.75;0.75;;;;;14.50;65.71;98182.16;2056512;28;46338;-58
2022/11/17 02:19:42;;;;;;;;;2.25;1.75;;;;;14.50;66.18;98192.84;2062726;28;46610;-62
2022/11/17 02:21:22;;;;;;;;;0.75;0.75;;;;;14.49;65.70;98188.47;2062289;28;46891;-59
2022/11/17 02:23:14;;;;;;;;;0.00;0.00;;;;;14.50;65.72;98190.16;2046211;28;46801;-60
2022/11/17 02:24:33;;;;;;;;;3.50;0.00;;;;;14.50;65.53;98188.34;2049643;28;46796;-61
2022/11/17 02:25:55;;;;;;;;;2.00;1.00;;;;;14.51;65.45;98179.38;2056742;28;46189;-61
2022/11/17 02:27:26;;;;;;;;;1.00;1.00;;;;;14.50;65.76;98180.34;2056318;28;46520;-59
2022/11/17 02:28:33;;;;;;;;;3.00;1.75;;;;;14.52;65.72;98180.22;2058034;28;46468;-60
2022/11/17 02:30:02;;;;;;;;;0.75;0.25;;;;;14.51;66.18;98181.19;2062387;28;47068;-59
2022/11/17 02:31:43;;;;;;;;;1.00;1.00;;;;;14.50;65.93;98180.34;2060170;28;46211;-60
2022/11/17 02:33:06;;;;;;;;;1.25;0.00;;;;;14.49;65.64;98175.97;2053226;28;46522;-59
2022/11/17 02:34:47;;;;;;;;;2.00;1.00;;;;;14.48;65.53;98192.06;2056215;28;46600;-59
2022/11/17 02:36:27;;;;;;;;;1.75;1.75;;;;;14.47;65.85;98187.72;2056513;28;46843;-61
2022/11/17 02:37:58;;;;;;;;;0.25;0.25;;;;;14.46;66.07;98183.34;2053982;28;46149;-59
2022/11/17 02:39:20;;;;;;;;;1.25;1.00;;;;;14.46;65.80;98192.19;2061443;28;46468;-60
2022/11/17 02:40:44;;;;;;;;;3.25;1.25;;;;;14.45;65.64;98217.19;2061919;28;46372;-59
2022/11/17 02:42:06;;;;;;;;;3.50;1.00;;;;;14.46;65.82;98191.34;2054335;28;46360;-60
2022/11/17 02:45:03;;;;;;;;;2.25;2.00;;;;;14.44;66.15;98199.47;2058658;28;46477;-61
2022/11/17 02:46:26;;;;;;;;;1.00;1.00;;;;;14.46;65.67;98210.88;2036441;28;46317;-59
2022/11/17 02:47:35;;;;;;;;;1.00;1.00;;;;;14.47;65.69;98211.72;2038586;28;46937;-60
2022/11/17 02:49:26;;;;;;;;;3.00;1.00;;;;;14.46;65.39;98204.69;2035268;28;45246;-61
2022/11/17 02:50:36;;;;;;;;;4.50;1.50;;;;;14.46;65.65;98218.03;2028364;28;46593;-61
2022/11/17 02:51:58;;;;;;;;;1.00;1.00;;;;;14.45;65.17;98216.34;2029153;29;46771;-61
2022/11/17 02:53:11;;;;;;;;;1.25;1.00;;;;;14.43;65.57;98208.41;2022021;29;46824;-61
2022/11/17 02:55:39;;;;;;;;;1.50;1.50;;;;;14.41;64.92;98229.03;1999249;29;46638;-59
2022/11/17 02:56:58;;;;;;;;;3.50;0.25;;;;;14.41;64.32;98215.69;1995241;29;47167;-62
2022/11/17 02:58:11;;;;;;;;;1.00;1.00;;;;;14.41;64.58;98221.03;1997837;29;46530;-60
2022/11/17 02:59:20;;;;;;;;;0.75;0.75;;;;;14.41;64.66;98216.53;2002283;29;46474;-60
2022/11/17 03:00:43;;;;;;;;;3.50;1.50;;;;;14.40;65.09;98212.19;1991518;29;46349;-60
2022/11/17 03:02:04;;;;;;;;;2.00;0.50;;;;;14.41;64.87;98210.38;1983304;29;47011;-61
2022/11/17 03:04:21;;;;;;;;;3.00;1.00;;;;;14.43;64.77;98216.44;1983449;29;46956;-60
2022/11/17 03:05:39;;;;;;;;;0.25;0.25;;;;;14.43;65.13;98213.75;2002268;29;45847;-61
2022/11/17 03:07:10;;;;;;;;;1.25;1.25;;;;;14.43;64.53;98216.44;1998007;29;46772;-60
2022/11/17 03:08:38;;;;;;;;;1.00;1.00;;;;;14.41;64.57;98235.22;1998667;29;45836;-60
2022/11/17 03:10:04;;;;;;;;;1.00;1.00;;;;;14.43;64.80;98235.94;1997477;29;46820;-62
2022/11/17 03:11:15;;;;;;;;;1.75;0.75;;;;;14.41;64.44;98224.56;1997935;29;46721;-60
2022/11/17 03:13:03;;;;;;;;;1.75;0.00;;;;;14.41;64.52;98224.56;1997824;29;46856;-60
2022/11/17 03:14:30;;;;;;;;;0.75;0.25;;;;;14.41;64.40;98245.06;1989857;29;46202;-60
2022/11/17 03:16:16;;;;;;;;;2.25;1.00;;;;;14.41;64.55;98242.38;1991201;29;48203;-59
2022/11/17 03:17:49;;;;;;;;;0.00;0.00;;;;;14.38;64.92;98239.97;1977842;29;46710;-59
2022/11/17 03:19:24;;;;;;;;;3.00;1.00;;;;;14.37;64.77;98255.13;1968854;29;46610;-60
2022/11/17 03:20:49;;;;;;;;;1.00;0.00;;;;;14.35;64.84;98265.03;1974268;29;46069;-61
2022/11/17 03:22:45;;;;;;;;;1.25;1.25;;;;;14.31;65.35;98268.91;1974746;29;46388;-61
2022/11/17 03:24:20;;;;;;;;;0.50;0.50;;;;;14.26;65.65;98267.56;1975141;29;46860;-58
2022/11/17 03:27:56;;;;;;;;;;;;;;;;;;;;;
2022/11/17 03:29:09;;;;;;;;;2.00;2.00;;;;;14.16;66.54;98278.06;1961299;29;46780;-61
2022/11/17 03:30:14;;;;;;;;;2.25;0.00;;;;;14.15;66.71;98289.72;1956702;29;46016;-60
2022/11/17 03:31:27;;;;;;;;;0.75;0.00;;;;;14.14;66.80;98301.34;1968918;29;46660;-58
2022/11/17 03:32:43;;;;;;;;;1.25;0.25;;;;;14.13;66.56;98294.31;1967025;29;46507;-60
2022/11/17 03:34:00;;;;;;;;;0.50;0.50;;;;;14.11;66.69;98289.09;1955501;30;46520;-59
2022/11/17 03:35:09;;;;;;;;;0.00;0.00;;;;;14.07;66.88;98308.09;1952034;30;46810;-61
2022/11/17 03:36:24;;;;;;;;;0.00;0.00;;;;;14.03;66.85;98315.47;1960900;29;47017;-60
2022/11/17 03:38:06;;;;;;;;;1.25;0.50;;;;;13.99;67.47;98315.81;1961539;29;46312;-61
2022/11/17 03:39:43;;;;;;;;;2.00;0.50;;;;;13.97;67.65;98323.06;1959775;29;46834;-61
2022/11/17 03:41:13;;;;;;;;;0.75;0.75;;;;;13.93;67.90;98314.44;1976907;29;46644;-60
2022/11/17 03:42:24;;;;;;;;;0.25;0.00;;;;;13.91;68.29;98313.72;1974125;29;46768;-61
2022/11/17 03:43:39;;;;;;;;;0.00;0.00;;;;;13.88;68.30;98319.28;1976581;29;46523;-60
2022/11/17 03:44:52;;;;;;;;;1.00;1.00;;;;;13.85;68.56;98327.50;1975420;29;46729;-58
2022/11/17 03:46:28;;;;;;;;;1.00;1.00;;;;;13.81;68.90;98326.84;1979019;29;46729;-60
2022/11/17 03:47:59;;;;;;;;;0.50;0.00;;;;;13.79;69.02;98330.59;1977953;29;46705;-60
2022/11/17 03:49:44;;;;;;;;;0.00;0.00;;;;;13.76;69.45;98331.69;1975623;29;46496;-60
2022/11/17 03:50:57;;;;;;;;;1.00;1.00;;;;;13.76;69.40;98334.34;1976132;29;46927;-61
2022/11/17 03:52:04;;;;;;;;;0.00;0.00;;;;;13.75;69.19;98335.31;1975466;29;46974;-59
2022/11/17 03:53:10;;;;;;;;;0.50;0.50;;;;;13.75;69.28;98343.31;1976458;29;46179;-60
2022/11/17 03:54:16;;;;;;;;;0.00;0.00;;;;;13.75;69.20;98351.31;1976071;29;46882;-59
2022/11/17 03:55:38;;;;;;;;;1.25;1.00;;;;;13.73;69.26;98355.91;1976541;29;46653;-61
2022/11/17 03:57:38;;;;;;;;;0.00;0.00;;;;;13.71;69.53;98357.81;1985971;29;46936;-60
2022/11/17 03:59:01;;;;;;;;;0.00;0.00;;;;;13.71;69.43;98365.78;1996905;29;48082;-60
2022/11/17 04:00:15;;;;;;;;;1.00;0.00;;;;;13.71;69.33;98357.81;2005267;29;46367;-60
2022/11/17 04:01:32;;;;;;;;;0.75;0.00;;;;;13.69;69.47;98357.06;2002230;29;46756;-59
2022/11/17 04:02:50;;;;;;;;;0.00;0.00;;;;;13.67;69.58;98355.47;2005463;29;46680;-60
2022/11/17 04:04:00;;;;;;;;;0.00;0.00;;;;;13.64;69.90;98369.03;1997181;29;46708;-60
2022/11/17 04:05:11;;;;;;;;;0.00;0.00;;;;;13.62;69.93;98374.47;1991441;29;46179;-59
2022/11/17 04:06:23;;;;;;;;;1.00;1.00;;;;;13.63;70.11;98386.84;2002274;29;46144;-60
2022/11/17 04:07:47;;;;;;;;;0.00;0.00;;;;;13.62;70.04;98374.47;1996775;29;46392;-60
2022/11/17 04:09:18;;;;;;;;;0.25;0.00;;;;;13.60;70.40;98376.41;2006160;29;47007;-60
2022/11/17 04:10:27;;;;;;;;;0.50;0.50;;;;;13.58;70.27;98382.78;2013494;29;47375;-60
2022/11/17 04:16:21;;;;;;;;;1.00;0.00;;;;;13.48;70.10;98387.94;2014297;29;47266;-60
2022/11/17 04:17:27;;;;;;;;;1.00;0.00;;;;;13.46;69.83;98388.00;1983023;29;45693;-60
2022/11/17 04:18:51;;;;;;;;;0.00;0.00;;;;;13.46;70.00;98381.81;1966745;29;46487;-60
2022/11/17 04:19:52;;;;;;;;;0.00;0.00;;;;;13.44;69.95;98386.41;1954004;29;45498;-60
2022/11/17 04:21:05;;;;;;;;;0.00;0.00;;;;;13.44;69.68;98383.75;1969759;29;46979;-60
2022/11/17 04:22:14;;;;;;;;;0.50;0.50;;;;;13.44;70.00;98386.41;1989731;29;46556;-59
2022/11/17 04:23:33;;;;;;;;;0.00;0.00;;;;;13.45;69.98;98380.13;1989798;29;46240;-61
2022/11/17 04:24:45;;;;;;;;;0.00;0.00;;;;;13.47;70.04;98387.06;1981643;29;46946;-59
2022/11/17 04:29:03;;;;;;;;;3.50;0.00;;;;;13.50;69.71;98396.66;2008448;29;46685;-59
2022/11/17 04:30:10;;;;;;;;;1.00;1.00;;;;;13.50;69.35;98400.19;2020476;28;46688;-61
2022/11/17 04:31:32;;;;;;;;;0.00;0.00;;;;;13.49;69.09;98402.94;2030160;29;46798;-60
2022/11/17 04:33:01;;;;;;;;;0.50;0.50;;;;;13.49;69.09;98402.94;2034871;28;47002;-61
2022/11/17 04:34:05;;;;;;;;;0.00;0.00;;;;;13.49;68.48;98397.63;2029372;28;46327;-59
2022/11/17 04:35:09;;;;;;;;;0.00;0.00;;;;;13.48;68.92;98404.75;2017737;29;46927;-60
2022/11/17 04:36:32;;;;;;;;;0.00;0.00;;;;;13.49;68.80;98405.63;2021039;29;45848;-61
2022/11/17 04:37:54;;;;;;;;;0.00;0.00;;;;;13.49;69.12;98417.13;2031600;28;46802;-59
2022/11/17 04:39:18;;;;;;;;;;;;;;;;;;;;;
2022/11/17 04:41:52;;;;;;;;;0.00;0.00;;;;;13.50;68.83;98418.81;2048581;28;46669;-62
2022/11/17 04:42:03;;;;;;;;;0.25;0.25;;;;;13.48;68.74;98409.25;2041562;28;46985;-61
2022/11/17 04:43:25;;;;;;;;;0.00;0.00;;;;;13.47;68.81;98424.38;2023018;29;46662;-61
2022/11/17 04:46:11;;;;;;;;;1.25;0.00;;;;;13.45;68.84;98418.28;2013811;29;46544;-60
2022/11/17 04:47:21;;;;;;;;;0.00;0.00;;;;;13.46;68.87;98419.13;2015702;29;47001;-59
2022/11/17 04:48:28;;;;;;;;;0.00;0.00;;;;;13.46;68.99;98429.78;2004679;29;46539;-61
2022/11/17 04:49:42;;;;;;;;;0.00;0.00;;;;;13.47;68.80;98434.19;2006038;29;46369;-60
2022/11/17 04:50:56;;;;;;;;;0.00;0.00;;;;;13.44;68.96;98437.88;2015022;29;46574;-60
2022/11/17 04:52:16;;;;;;;;;0.00;0.00;;;;;13.44;69.42;98429.03;2006431;29;47389;-60
2022/11/17 04:53:44;;;;;;;;;0.00;0.00;;;;;13.43;69.19;98444.19;2011736;29;46499;-60
2022/11/17 04:55:13;;;;;;;;;0.00;0.00;;;;;13.42;69.06;98461.13;2033630;28;46989;-58
2022/11/17 04:56:15;;;;;;;;;0.00;0.00;;;;;13.42;69.27;98449.63;2014771;29;46466;-61
2022/11/17 04:57:45;;;;;;;;;0.00;0.00;;;;;13.41;69.26;98459.44;2019613;29;46112;-60
2022/11/17 04:59:09;;;;;;;;;0.00;0.00;;;;;13.39;69.50;98450.69;2015945;29;46469;-58
2022/11/17 05:00:19;;;;;;;;;0.00;0.00;;;;;13.37;69.15;98457.94;1992042;29;46949;-61
2022/11/17 05:01:32;;;;;;;;;0.00;0.00;;;;;13.38;69.53;98459.66;1995953;29;47390;-63
2022/11/17 05:02:59;;;;;;;;;0.00;0.00;;;;;13.35;69.40;98459.88;1990599;29;45930;-60
2022/11/17 05:04:54;;;;;;;;;0.25;0.00;;;;;13.34;69.60;98465.28;1976010;29;46475;-60
2022/11/17 05:05:46;;;;;;;;;0.25;0.00;;;;;13.32;69.56;98469.84;1977236;29;46453;-60
2022/11/17 05:08:26;;;;;;;;;0.00;0.00;;;;;13.30;69.57;98469.13;1977176;29;46487;-61
2022/11/17 05:10:13;;;;;;;;;0.50;0.25;;;;;13.30;69.45;98472.63;1992301;29;46491;-60
2022/11/17 05:14:31;;;;;;;;;1.50;0.00;;;;;13.28;69.66;98481.69;1958589;29;48879;-60
2022/11/17 05:17:40;;;;;;;;;0.00;0.00;;;;;13.25;69.91;98474.75;1962411;29;46495;-59
2022/11/17 05:18:47;;;;;;;;;0.00;0.00;;;;;13.23;69.64;98480.19;1946105;30;48004;-60
2022/11/17 05:20:05;;;;;;;;;0.00;0.00;;;;;13.22;69.63;98489.16;1952600;30;46796;-59
2022/11/17 05:21:19;;;;;;;;;1.75;1.00;;;;;13.21;69.91;98483.91;1957076;30;46648;-61
2022/11/17 05:24:01;;;;;;;;;0.00;0.00;;;;;13.21;70.05;98494.56;1962558;29;46832;-60
2022/11/17 05:25:27;;;;;;;;;0.00;0.00;;;;;13.22;70.06;98488.31;1969232;29;46798;-61
2022/11/17 05:26:57;;;;;;;;;0.75;0.00;;;;;13.23;69.85;98487.34;1973226;29;46759;-60
2022/11/17 05:28:09;;;;;;;;;0.00;0.00;;;;;13.25;69.89;98506.72;1935953;30;46432;-59
2022/11/17 05:29:18;;;;;;;;;0.25;0.00;;;;;13.27;69.89;98503.97;1939105;30;46968;-61
2022/11/17 05:30:22;;;;;;;;;0.00;0.00;;;;;13.27;69.76;98507.47;1940323;30;46655;-62
2022/11/17 05:31:56;;;;;;;;;0.75;0.75;;;;;13.28;69.74;98505.66;1940686;30;46572;-60
2022/11/17 05:33:26;;;;;;;;;1.00;1.00;;;;;13.25;69.74;98506.72;1945619;30;46600;-60
2022/11/17 05:34:32;;;;;;;;;0.00;0.00;;;;;13.24;69.66;98502.38;1960904;29;45355;-62
2022/11/17 05:35:44;;;;;;;;;0.00;0.00;;;;;13.22;69.63;98506.94;1962377;30;46320;-62
2022/11/17 05:36:53;;;;;;;;;0.00;0.00;;;;;13.19;69.37;98507.97;1953565;30;46078;-61
2022/11/17 05:38:05;;;;;;;;;1.00;0.00;;;;;13.17;69.56;98504.53;1963908;29;45770;-61
2022/11/17 05:39:12;;;;;;;;;1.25;0.25;;;;;13.15;69.38;98513.59;1983538;29;46348;-60
2022/11/17 05:40:14;;;;;;;;;0.00;0.00;;;;;13.12;69.78;98504.00;1963771;29;47037;-61
2022/11/17 05:41:21;;;;;;;;;0.00;0.00;;;;;13.11;69.82;98506.78;1965909;29;46634;-61
2022/11/17 05:42:25;;;;;;;;;0.00;0.00;;;;;13.12;69.87;98511.13;1961051;29;46617;-61
2022/11/17 05:43:57;;;;;;;;;0.25;0.25;;;;;13.11;69.76;98507.63;1962664;29;47438;-62
2022/11/17 05:45:06;;;;;;;;;0.00;0.00;;;;;13.12;69.70;98514.66;1961723;29;46853;-62
2022/11/17 05:46:46;;;;;;;;;0.00;0.00;;;;;13.12;69.77;98513.81;1961265;29;46611;-63
2022/11/17 05:48:12;;;;;;;;;0.75;0.75;;;;;13.11;69.80;98522.75;1967467;29;46707;-62
2022/11/17 05:49:30;;;;;;;;;0.00;0.00;;;;;13.09;69.56;98522.84;1969809;29;46460;-61
2022/11/17 05:51:00;;;;;;;;;0.00;0.00;;;;;13.09;69.72;98522.84;1968385;29;46762;-59
2022/11/17 05:52:17;;;;;;;;;0.00;0.00;;;;;13.09;69.55;98520.19;1955913;30;46813;-59
2022/11/17 05:53:24;;;;;;;;;0.00;0.00;;;;;13.10;69.67;98516.56;1953420;30;45103;-61
2022/11/17 05:54:34;;;;;;;;;1.25;0.75;;;;;13.10;69.50;98523.72;1953364;30;46545;-62
2022/11/17 05:55:47;;;;;;;;;0.00;0.00;;;;;13.09;69.39;98522.84;1953484;30;47180;-61
2022/11/17 05:56:55;;;;;;;;;0.00;0.00;;;;;13.08;69.17;98521.13;1948727;30;46396;-63
2022/11/17 05:58:28;;;;;;;;;0.00;0.00;;;;;13.08;69.58;98521.13;1939178;30;47725;-63
2022/11/17 05:59:56;;;;;;;;;0.00;0.00;;;;;13.06;69.29;98527.50;1955685;30;46669;-63
2022/11/17 06:01:15;;;;;;;;;0.00;0.00;;;;;13.06;69.31;98535.50;1960965;29;46039;-62
2022/11/17 06:02:30;;;;;;;;;1.00;1.00;;;;;13.06;69.90;98539.00;1961159;29;45955;-61
2022/11/17 06:04:15;;;;;;;;;0.00;0.00;;;;;13.07;69.38;98537.22;1962372;30;46600;-60
2022/11/17 06:05:31;;;;;;;;;0.50;0.50;;;;;13.07;69.50;98542.53;1949126;29;46901;-62
2022/11/17 06:06:37;;;;;;;;;1.00;0.00;;;;;13.06;69.51;98536.34;1982925;29;45785;-62
2022/11/17 06:07:38;;;;;;;;;0.00;0.00;;;;;13.06;69.47;98547.00;1987434;29;47214;-62
2022/11/17 06:08:43;;;;;;;;;0.00;0.00;;;;;13.05;69.38;98542.63;1968420;29;47035;-61
2022/11/17 06:09:58;;;;;;;;;2.00;0.50;;;;;13.06;69.39;98548.81;1976341;29;46571;-61
2022/11/17 06:11:05;;;;;;;;;0.75;0.25;;;;;13.06;69.51;98544.34;1976531;29;47412;-61
2022/11/17 06:12:14;;;;;;;;;0.75;0.00;;;;;13.06;69.59;98547.00;1984580;29;46386;-61
2022/11/17 06:13:37;;;;;;;;;2.00;1.00;;;;;13.07;69.42;98556.69;2000880;29;46768;-61
2022/11/17 06:14:41;;;;;;;;;0.25;0.25;;;;;13.09;69.32;98556.63;2001241;29;46802;-61
2022/11/17 06:16:26;;;;;;;;;0.00;0.00;;;;;13.10;69.13;98545.00;1991942;29;46678;-60
2022/11/17 06:17:49;;;;;;;;;2.00;0.00;;;;;13.10;68.96;98555.66;1987895;29;46388;-61
2022/11/17 06:19:11;;;;;;;;;1.00;0.00;;;;;13.10;68.86;98551.19;1991295;29;46586;-60
2022/11/17 06:21:04;;;;;;;;;2.00;0.00;;;;;13.10;68.69;98561.00;1990957;29;46164;-60
2022/11/17 06:22:33;;;;;;;;;1.25;1.00;;;;;13.09;68.79;98557.47;1979261;29;46997;-59
2022/11/17 06:23:42;;;;;;;;;1.75;0.00;;;;;13.11;68.91;98550.25;1974170;29;45688;-60
2022/11/17 06:24:50;;;;;;;;;0.00;0.00;;;;;13.11;68.47;98550.25;1970681;29;46344;-62
2022/11/17 06:26:01;;;;;;;;;1.00;0.00;;;;;13.13;68.52;98552.78;1969833;29;46488;-60
2022/11/17 06:27:30;;;;;;;;;2.00;1.00;;;;;13.14;68.45;98552.69;1969467;29;46416;-61
2022/11/17 06:28:36;;;;;;;;;1.00;1.00;;;;;13.16;68.13;98548.09;1966900;29;46512;-60
2022/11/17 06:29:50;;;;;;;;;;;;;;;;;;;;;
2022/11/17 06:31:02;;;;;;;;;0.25;0.25;;;;;13.18;67.53;98548.88;1980304;29;47041;-60
2022/11/17 06:32:08;;;;;;;;;0.75;0.75;;;;;13.19;67.86;98550.59;1976669;29;47377;-60
2022/11/17 06:33:33;;;;;;;;;0.75;0.00;;;;;13.20;67.80;98538.13;1973287;29;46541;-61
2022/11/17 06:34:50;;;;;;;;;0.00;0.00;;;;;13.22;68.14;98546.91;1972640;29;46403;-59
2022/11/17 06:38:04;;;;;;;;;0.75;0.00;;;;;13.20;66.98;98540.78;1980532;29;46951;-60
2022/11/17 06:39:37;;;;;;;;;0.75;0.00;;;;;13.19;67.05;98547.06;1983696;29;47229;-59
2022/11/17 06:40:50;;;;;;;;;1.75;0.75;;;;;13.18;66.84;98546.22;1991084;29;47195;-60
2022/11/17 06:41:51;;;;;;;;;1.00;0.00;;;;;13.17;66.59;98562.28;1990692;29;47354;-60
2022/11/17 06:44:18;;;;;;;;;2.00;0.50;;;;;13.16;66.67;98555.25;1995632;29;46666;-61
2022/11/17 06:45:21;;;;;;;;;0.00;0.00;;;;;13.15;66.52;98557.06;1992227;29;46161;-60
2022/11/17 06:46:43;;;;;;;;;0.00;0.00;;;;;13.17;66.55;98554.28;1991266;29;46734;-60
2022/11/17 06:48:09;;;;;;;;;0.00;0.00;;;;;13.18;66.66;98556.00;1986919;29;46278;-60